Time;durP1;ratioP1;P1;durP2;ratioP2;P2;SDS_P1;SDS_P2;PMS_P1;PMS_P2;Temp;Humidity;BMP_temperature;BMP_pressure;BME280_temperature;BME280_humidity;BME280_pressure;Samples;Min_cycle;Max_cycle;Signal;HPM_P1;HPM_P2
2023/09/10 00:01:16;;;;;;;21.10;19.00;;;23.00;99.90;;;;;;5070385;28;20016;-82
2023/09/10 00:03:42;;;;;;;23.38;21.02;;;22.90;99.90;;;;;;5062696;28;20025;-84
2023/09/10 00:06:08;;;;;;;24.42;20.05;;;22.90;99.90;;;;;;5075566;28;20020;-84
2023/09/10 00:08:34;;;;;;;23.80;21.40;;;22.90;99.90;;;;;;5068236;28;20032;-83
2023/09/10 00:11:00;;;;;;;24.13;21.63;;;22.80;99.90;;;;;;5072540;28;20042;-83
2023/09/10 00:13:26;;;;;;;23.65;21.23;;;22.80;99.90;;;;;;5077622;28;20028;-83
2023/09/10 00:15:52;;;;;;;24.08;21.83;;;22.80;99.90;;;;;;5070928;28;20115;-84
2023/09/10 00:18:19;;;;;;;24.38;21.98;;;22.80;99.90;;;;;;5072986;28;20385;-83
2023/09/10 00:20:45;;;;;;;23.50;21.02;;;22.80;99.90;;;;;;5075534;28;20046;-83
2023/09/10 00:23:11;;;;;;;27.25;24.45;;;22.80;99.90;;;;;;5078309;28;20017;-83
2023/09/10 00:25:36;;;;;;;26.08;23.48;;;22.80;99.90;;;;;;5075735;28;20016;-85
2023/09/10 00:28:02;;;;;;;26.08;23.20;;;22.70;99.90;;;;;;5072665;28;20406;-82
2023/09/10 00:30:28;;;;;;;26.40;23.73;;;22.70;99.90;;;;;;5069462;28;20020;-80
2023/09/10 00:32:54;;;;;;;26.15;23.35;;;22.60;99.90;;;;;;5080957;28;20017;-81
2023/09/10 00:35:20;;;;;;;25.13;22.25;;;22.50;99.90;;;;;;5069840;28;20025;-81
2023/09/10 00:37:45;;;;;;;24.90;22.35;;;22.60;99.90;;;;;;5074454;28;20393;-81
2023/09/10 00:40:12;;;;;;;24.35;21.85;;;22.60;99.90;;;;;;5075257;28;20086;-81
2023/09/10 00:42:38;;;;;;;23.95;21.33;;;22.50;99.90;;;;;;5075780;28;20020;-81
2023/09/10 00:45:08;;;;;;;26.15;23.42;;;22.50;99.90;;;;;;5085351;28;20028;-81
2023/09/10 00:47:37;;;;;;;22.98;20.58;;;22.50;99.90;;;;;;5067296;28;20147;-80
2023/09/10 00:50:05;;;;;;;22.73;20.48;;;22.50;99.90;;;;;;5075761;28;20859;-81
2023/09/10 00:52:31;;;;;;;23.85;21.45;;;22.50;99.90;;;;;;5081357;28;20009;-80
2023/09/10 00:54:57;;;;;;;25.75;19.80;;;22.50;99.90;;;;;;5069760;28;20103;-81
2023/09/10 00:57:25;;;;;;;25.83;22.27;;;22.50;99.90;;;;;;5078345;28;20538;-81
2023/09/10 00:59:52;;;;;;;23.67;21.48;;;22.50;99.90;;;;;;5073785;28;20024;-81
2023/09/10 01:02:18;;;;;;;26.75;23.83;;;22.50;99.90;;;;;;5067749;28;20440;-81
2023/09/10 01:04:44;;;;;;;24.50;21.27;;;22.50;99.90;;;;;;5070875;28;20090;-80
2023/09/10 01:07:10;;;;;;;25.55;22.58;;;22.40;99.90;;;;;;5068987;28;20040;-79
2023/09/10 01:09:36;;;;;;;24.70;22.30;;;22.40;99.90;;;;;;5074707;28;20024;-81
2023/09/10 01:12:07;;;;;;;23.20;21.10;;;22.40;99.90;;;;;;5076986;28;20033;-81
2023/09/10 01:15:04;;;;;;;23.23;20.92;;;22.40;99.90;;;;;;5068699;28;20036;-81
2023/09/10 01:18:00;;;;;;;24.08;21.65;;;22.40;99.90;;;;;;5067158;28;20039;-80
2023/09/10 01:21:17;;;;;;;23.38;21.08;;;22.40;99.90;;;;;;5054036;28;20037;-81
2023/09/10 01:23:57;;;;;;;24.65;22.35;;;22.30;99.90;;;;;;5047997;28;20032;-80
2023/09/10 01:26:23;;;;;;;25.13;22.73;;;22.30;99.90;;;;;;5072283;28;20020;-80
2023/09/10 01:28:49;;;;;;;24.77;22.45;;;22.30;99.90;;;;;;5082881;28;20031;-80
2023/09/10 01:31:14;;;;;;;28.10;25.25;;;22.30;99.90;;;;;;5074340;28;20469;-80
2023/09/10 01:33:52;;;;;;;26.08;23.48;;;22.20;99.90;;;;;;5070710;28;20524;-80
2023/09/10 01:36:40;;;;;;;25.33;22.75;;;22.20;99.90;;;;;;5076214;28;20052;-80
2023/09/10 01:39:36;;;;;;;27.02;21.00;;;22.20;99.90;;;;;;5069131;28;20025;-79
2023/09/10 01:42:07;;;;;;;23.35;20.83;;;22.10;99.90;;;;;;5068082;28;20036;-80
2023/09/10 01:44:36;;;;;;;22.98;19.85;;;22.10;99.90;;;;;;5065691;28;20013;-80
2023/09/10 01:47:03;;;;;;;24.90;22.35;;;22.10;99.90;;;;;;5084913;28;20542;-80
2023/09/10 01:49:28;;;;;;;27.55;24.35;;;22.10;99.90;;;;;;5066765;28;20023;-76
2023/09/10 01:51:54;;;;;;;27.77;23.77;;;22.10;99.90;;;;;;5066171;28;20024;-74
2023/09/10 01:54:20;;;;;;;28.42;25.45;;;22.10;99.90;;;;;;5080896;28;20376;-73
2023/09/10 01:56:45;;;;;;;31.40;28.08;;;22.00;99.90;;;;;;5066202;28;20358;-80
2023/09/10 01:59:11;;;;;;;29.67;26.40;;;22.00;99.90;;;;;;5071420;28;20411;-80
2023/09/10 02:01:37;;;;;;;29.95;26.83;;;22.00;99.90;;;;;;5071991;28;20554;-80
2023/09/10 02:04:03;;;;;;;37.03;26.42;;;22.00;99.90;;;;;;5070955;28;20114;-76
2023/09/10 02:06:28;;;;;;;27.98;25.05;;;22.00;99.90;;;;;;5063710;28;20024;-79
2023/09/10 02:08:54;;;;;;;30.95;27.25;;;22.00;99.90;;;;;;5072850;28;20396;-80
2023/09/10 02:11:20;;;;;;;30.17;26.67;;;22.00;99.90;;;;;;5077309;28;20065;-79
2023/09/10 02:13:46;;;;;;;25.95;23.33;;;21.90;99.90;;;;;;5072012;28;20067;-79
2023/09/10 02:16:12;;;;;;;30.65;27.45;;;21.90;99.90;;;;;;5070809;28;20469;-79
2023/09/10 02:18:37;;;;;;;30.80;27.50;;;22.00;99.90;;;;;;5068526;28;20025;-79
2023/09/10 02:21:10;;;;;;;29.63;25.38;;;21.80;99.90;;;;;;5061386;28;20074;-79
2023/09/10 02:23:37;;;;;;;29.80;26.85;;;21.80;99.90;;;;;;5068179;28;20036;-79
2023/09/10 02:26:03;;;;;;;30.05;26.83;;;21.80;99.90;;;;;;5070960;28;20047;-79
2023/09/10 02:28:28;;;;;;;34.75;31.05;;;21.80;99.90;;;;;;5076298;28;20472;-79
2023/09/10 02:30:54;;;;;;;31.52;28.13;;;21.70;99.90;;;;;;5071101;28;20024;-78
2023/09/10 02:33:20;;;;;;;28.63;25.65;;;21.70;99.90;;;;;;5072635;28;20034;-79
2023/09/10 02:35:46;;;;;;;33.88;30.23;;;21.70;99.90;;;;;;5070758;28;20116;-78
2023/09/10 02:38:11;;;;;;;35.85;31.98;;;21.70;99.90;;;;;;5071324;28;20031;-78
2023/09/10 02:40:37;;;;;;;39.88;35.65;;;21.70;99.90;;;;;;5073477;28;20366;-79
2023/09/10 02:43:03;;;;;;;41.28;36.25;;;21.60;99.90;;;;;;5070529;28;20392;-77
2023/09/10 02:45:29;;;;;;;42.25;36.75;;;21.60;99.90;;;;;;5074491;28;20553;-78
2023/09/10 02:47:54;;;;;;;38.75;34.70;;;21.50;99.90;;;;;;5075998;28;20032;-78
2023/09/10 02:50:20;;;;;;;41.80;35.45;;;21.50;99.90;;;;;;5069076;28;20020;-78
2023/09/10 02:52:45;;;;;;;39.50;35.10;;;21.50;99.90;;;;;;5076119;28;20438;-78
2023/09/10 02:55:11;;;;;;;37.20;32.53;;;21.50;99.90;;;;;;5070138;28;20388;-77
2023/09/10 02:57:37;;;;;;;39.92;35.50;;;21.50;99.90;;;;;;5076803;28;20676;-78
2023/09/10 03:00:05;;;;;;;41.30;36.95;;;21.50;99.90;;;;;;5070523;28;20085;-77
2023/09/10 03:02:31;;;;;;;40.53;36.15;;;21.40;99.90;;;;;;5072378;28;20114;-78
2023/09/10 03:04:56;;;;;;;45.15;39.15;;;21.40;99.90;;;;;;5064949;28;20305;-77
2023/09/10 03:07:22;;;;;;;41.70;37.40;;;21.50;99.90;;;;;;5076105;28;20074;-78
2023/09/10 03:09:50;;;;;;;45.25;37.20;;;21.50;99.90;;;;;;5079141;28;20473;-73
2023/09/10 03:12:20;;;;;;;44.33;39.05;;;21.50;99.90;;;;;;5066084;28;20077;-78
2023/09/10 03:14:46;;;;;;;39.22;35.00;;;21.50;99.90;;;;;;5076447;28;20528;-78
2023/09/10 03:17:12;;;;;;;43.20;38.50;;;21.50;99.90;;;;;;5070922;28;20057;-78
2023/09/10 03:19:37;;;;;;;42.65;38.08;;;21.50;99.90;;;;;;5069261;28;21707;-77
2023/09/10 03:22:03;;;;;;;43.03;36.20;;;21.40;99.90;;;;;;5058734;28;20462;-77
2023/09/10 03:24:33;;;;;;;42.50;36.10;;;21.40;99.90;;;;;;5074252;28;20123;-78
2023/09/10 03:26:58;;;;;;;35.42;29.75;;;21.40;99.90;;;;;;5086020;28;20028;-77
2023/09/10 03:29:24;;;;;;;37.55;33.08;;;21.50;99.90;;;;;;5077611;28;20021;-76
2023/09/10 03:31:50;;;;;;;32.10;28.70;;;21.50;99.90;;;;;;5082184;28;20397;-78
2023/09/10 03:34:15;;;;;;;29.13;26.02;;;21.50;99.90;;;;;;5071837;28;20043;-78
2023/09/10 03:36:41;;;;;;;26.33;23.52;;;21.50;99.90;;;;;;5072488;28;20150;-78
2023/09/10 03:39:07;;;;;;;28.00;25.10;;;21.50;99.90;;;;;;5078722;28;20032;-77
2023/09/10 03:41:32;;;;;;;30.08;26.92;;;21.50;99.90;;;;;;5070418;28;20031;-77
2023/09/10 03:43:59;;;;;;;30.83;27.52;;;21.50;99.90;;;;;;5081589;28;20024;-77
2023/09/10 03:46:25;;;;;;;29.08;25.90;;;21.50;99.90;;;;;;5074644;28;20525;-74
2023/09/10 03:48:51;;;;;;;32.53;29.15;;;21.50;99.90;;;;;;5071801;28;20028;-78
2023/09/10 03:51:17;;;;;;;32.63;29.05;;;21.40;99.90;;;;;;5075829;28;20027;-78
2023/09/10 03:53:42;;;;;;;34.25;29.90;;;21.40;99.90;;;;;;5076460;28;20469;-77
2023/09/10 03:56:08;;;;;;;35.28;31.58;;;21.40;99.90;;;;;;5075330;28;20028;-76
2023/09/10 03:58:34;;;;;;;38.00;33.97;;;21.40;99.90;;;;;;5077065;28;20427;-76
2023/09/10 04:00:59;;;;;;;39.90;35.80;;;21.40;99.90;;;;;;5074015;28;20571;-78
2023/09/10 04:03:26;;;;;;;41.55;32.65;;;21.40;99.90;;;;;;5077991;28;20480;-78
2023/09/10 04:05:54;;;;;;;36.20;32.08;;;21.40;99.90;;;;;;5071593;28;20335;-77
2023/09/10 04:08:20;;;;;;;33.97;30.25;;;21.40;99.90;;;;;;5079143;28;20025;-77
2023/09/10 04:10:46;;;;;;;36.47;32.22;;;21.40;99.90;;;;;;5072476;28;20081;-77
2023/09/10 04:13:11;;;;;;;36.63;32.10;;;21.40;99.90;;;;;;5079639;28;20017;-78
2023/09/10 04:15:37;;;;;;;39.33;35.45;;;21.40;99.90;;;;;;5078573;28;20461;-78
2023/09/10 04:18:05;;;;;;;32.92;29.25;;;21.40;99.90;;;;;;5068737;28;20428;-77
2023/09/10 04:20:32;;;;;;;31.48;27.70;;;21.40;99.90;;;;;;5079880;28;20385;-77
2023/09/10 04:22:57;;;;;;;33.72;29.73;;;21.30;99.90;;;;;;5082859;28;20016;-78
2023/09/10 04:25:23;;;;;;;36.90;32.53;;;21.30;99.90;;;;;;5070116;28;20078;-77
2023/09/10 04:27:49;;;;;;;38.13;33.75;;;21.30;99.90;;;;;;5067840;28;20017;-78
2023/09/10 04:30:15;;;;;;;32.63;29.13;;;21.30;99.90;;;;;;5076328;28;20028;-77
2023/09/10 04:32:41;;;;;;;35.83;31.77;;;21.30;99.90;;;;;;5071449;28;20044;-77
2023/09/10 04:35:07;;;;;;;37.20;32.38;;;21.30;99.90;;;;;;5070845;28;20044;-78
2023/09/10 04:37:34;;;;;;;33.58;26.75;;;21.30;99.90;;;;;;5081221;28;20024;-77
2023/09/10 04:40:05;;;;;;;31.35;28.13;;;21.30;99.90;;;;;;5070337;28;20537;-77
2023/09/10 04:42:31;;;;;;;32.70;29.13;;;21.30;99.90;;;;;;5074756;28;20112;-78
2023/09/10 04:44:57;;;;;;;34.20;30.58;;;21.30;99.90;;;;;;5067209;28;20111;-78
2023/09/10 04:47:22;;;;;;;33.05;29.60;;;21.30;99.90;;;;;;5078442;28;20495;-77
2023/09/10 04:49:48;;;;;;;35.53;30.80;;;21.20;99.90;;;;;;5070149;28;20498;-76
2023/09/10 04:52:15;;;;;;;36.78;33.10;;;21.20;99.90;;;;;;5075361;28;20467;-77
2023/09/10 04:54:41;;;;;;;40.47;34.80;;;21.20;99.90;;;;;;5081071;28;20118;-77
2023/09/10 04:57:07;;;;;;;32.35;28.75;;;21.20;99.90;;;;;;5069822;28;20040;-77
2023/09/10 04:59:33;;;;;;;33.70;30.10;;;21.20;99.90;;;;;;5078431;28;20481;-77
2023/09/10 05:02:00;;;;;;;34.08;30.60;;;21.20;99.90;;;;;;5073281;28;20024;-78
2023/09/10 05:04:26;;;;;;;29.85;26.83;;;21.10;99.90;;;;;;5067998;28;20457;-78
2023/09/10 05:06:51;;;;;;;31.00;27.05;;;21.20;99.90;;;;;;5080757;28;20035;-79
2023/09/10 05:09:17;;;;;;;31.42;28.15;;;21.10;99.90;;;;;;5064181;28;20390;-79
2023/09/10 05:11:43;;;;;;;34.38;30.05;;;21.20;99.90;;;;;;5066638;28;20472;-77
2023/09/10 05:14:08;;;;;;;40.25;35.30;;;21.10;99.90;;;;;;5074547;28;20401;-77
2023/09/10 05:16:34;;;;;;;34.72;30.15;;;21.10;99.90;;;;;;5076993;28;20465;-78
2023/09/10 05:19:00;;;;;;;32.28;28.45;;;21.10;99.90;;;;;;5073374;28;20166;-77
2023/09/10 05:21:26;;;;;;;34.20;29.88;;;21.10;99.90;;;;;;5077172;28;20583;-78
2023/09/10 05:23:51;;;;;;;34.17;29.33;;;21.00;99.90;;;;;;5073583;28;20040;-78
2023/09/10 05:26:17;;;;;;;34.85;31.23;;;21.10;99.90;;;;;;5075016;28;20021;-79
2023/09/10 05:28:42;;;;;;;37.00;31.73;;;21.00;99.90;;;;;;5083879;28;20358;-79
2023/09/10 05:31:09;;;;;;;35.63;30.90;;;21.10;99.90;;;;;;5064905;28;20381;-78
2023/09/10 05:33:35;;;;;;;32.00;27.45;;;21.00;99.90;;;;;;5071022;28;20036;-79
2023/09/10 05:36:00;;;;;;;32.60;27.48;;;21.10;99.90;;;;;;5071410;28;20024;-79
2023/09/10 05:38:26;;;;;;;29.63;26.42;;;21.10;99.90;;;;;;5068118;28;20392;-79
2023/09/10 05:40:53;;;;;;;33.53;27.42;;;21.00;99.90;;;;;;5074709;28;20480;-78
2023/09/10 05:43:19;;;;;;;33.35;28.67;;;21.00;99.90;;;;;;5072276;28;20095;-79
2023/09/10 05:45:46;;;;;;;31.92;28.65;;;21.10;99.90;;;;;;5074423;28;20104;-78
2023/09/10 05:48:12;;;;;;;32.22;28.92;;;21.00;99.90;;;;;;5066608;28;20164;-79
2023/09/10 05:50:41;;;;;;;34.95;27.90;;;21.00;99.90;;;;;;5066004;28;20647;-81
2023/09/10 05:53:06;;;;;;;35.70;28.02;;;21.10;99.90;;;;;;5070314;28;20024;-79
2023/09/10 05:55:32;;;;;;;31.63;28.25;;;21.10;99.90;;;;;;5070721;28;20091;-79
2023/09/10 05:57:58;;;;;;;34.28;28.77;;;21.10;99.90;;;;;;5069973;28;20389;-81
2023/09/10 06:00:24;;;;;;;32.40;27.83;;;21.10;99.90;;;;;;5072271;28;20051;-80
2023/09/10 06:02:51;;;;;;;34.22;30.67;;;21.10;99.90;;;;;;5067622;28;20052;-82
2023/09/10 06:05:17;;;;;;;39.05;29.52;;;21.10;99.90;;;;;;5067086;28;20032;-82
2023/09/10 06:07:43;;;;;;;36.65;32.80;;;21.10;99.90;;;;;;5066982;28;20104;-79
2023/09/10 06:10:09;;;;;;;38.38;32.15;;;21.10;99.90;;;;;;5079230;28;20029;-82
2023/09/10 06:12:36;;;;;;;36.65;32.65;;;21.20;99.90;;;;;;5072067;28;20016;-82
2023/09/10 06:15:07;;;;;;;35.50;31.80;;;21.20;99.90;;;;;;5076641;28;20113;-82
2023/09/10 06:17:33;;;;;;;35.05;31.08;;;21.20;99.90;;;;;;5072449;28;20042;-81
2023/09/10 06:20:00;;;;;;;34.28;30.77;;;21.20;99.90;;;;;;5073667;28;20028;-82
2023/09/10 06:22:25;;;;;;;37.50;31.58;;;21.20;99.90;;;;;;5072188;28;20023;-82
2023/09/10 06:24:51;;;;;;;32.00;28.70;;;21.20;99.90;;;;;;5073576;28;20100;-82
2023/09/10 06:27:17;;;;;;;35.33;30.13;;;21.20;99.90;;;;;;5072414;28;20103;-80
2023/09/10 06:29:43;;;;;;;34.45;30.85;;;21.20;99.90;;;;;;5071643;28;20107;-80
2023/09/10 06:32:09;;;;;;;35.67;29.52;;;21.30;99.90;;;;;;5074014;28;20055;-78
2023/09/10 06:34:34;;;;;;;39.03;31.75;;;21.30;99.90;;;;;;5071802;28;20021;-81
2023/09/10 06:37:00;;;;;;;35.65;31.90;;;21.30;99.90;;;;;;5074776;28;20550;-81
2023/09/10 06:39:26;;;;;;;39.50;35.53;;;21.30;99.90;;;;;;5070569;28;20029;-81
2023/09/10 06:41:54;;;;;;;39.38;35.13;;;21.30;99.90;;;;;;5069322;28;20035;-78
2023/09/10 06:44:19;;;;;;;40.80;33.92;;;21.40;99.90;;;;;;5080764;28;20480;-82
2023/09/10 06:46:45;;;;;;;39.15;34.95;;;21.40;99.90;;;;;;5065779;28;20095;-82
2023/09/10 06:49:11;;;;;;;34.25;30.77;;;21.40;99.90;;;;;;5070338;28;20052;-82
2023/09/10 06:51:37;;;;;;;36.65;32.83;;;21.40;99.90;;;;;;5077625;28;20023;-82
2023/09/10 06:54:02;;;;;;;41.00;32.95;;;21.40;99.90;;;;;;5065591;28;20105;-81
2023/09/10 06:56:31;;;;;;;37.80;33.70;;;21.50;99.90;;;;;;5078084;28;20008;-81
2023/09/10 06:58:57;;;;;;;39.92;35.67;;;21.50;99.90;;;;;;5074392;28;20447;-81
2023/09/10 07:01:22;;;;;;;40.15;35.90;;;21.60;99.90;;;;;;5078384;28;20017;-81
2023/09/10 07:03:52;;;;;;;39.58;35.28;;;21.50;99.90;;;;;;5072386;28;20385;-76
2023/09/10 07:06:18;;;;;;;37.60;33.67;;;21.60;99.90;;;;;;5076074;28;20020;-80
2023/09/10 07:08:44;;;;;;;45.83;39.35;;;21.60;99.90;;;;;;5070417;28;20062;-83
2023/09/10 07:11:10;;;;;;;37.78;32.72;;;21.70;99.90;;;;;;5083713;28;20077;-86
2023/09/10 07:13:38;;;;;;;39.28;35.20;;;21.70;99.90;;;;;;5073532;28;20044;-81
2023/09/10 07:16:05;;;;;;;40.78;35.30;;;21.80;99.90;;;;;;5078572;28;20027;-80
2023/09/10 07:18:34;;;;;;;39.25;35.30;;;21.80;99.90;;;;;;5078967;28;20153;-81
2023/09/10 07:21:03;;;;;;;44.03;39.28;;;21.80;99.90;;;;;;5075326;28;20024;-82
2023/09/10 07:23:28;;;;;;;37.95;33.97;;;21.90;99.90;;;;;;5074841;28;20103;-82
2023/09/10 07:25:55;;;;;;;35.80;32.00;;;22.00;99.90;;;;;;5079946;28;20615;-81
2023/09/10 07:28:21;;;;;;;35.95;31.08;;;22.10;99.90;;;;;;5078469;28;20016;-81
2023/09/10 07:30:47;;;;;;;34.67;30.90;;;22.10;99.90;;;;;;5072422;28;20662;-82
2023/09/10 07:33:12;;;;;;;33.58;30.08;;;22.20;99.90;;;;;;5080715;28;20033;-82
2023/09/10 07:35:38;;;;;;;35.15;31.42;;;22.20;99.90;;;;;;5074497;28;20450;-83
2023/09/10 07:38:04;;;;;;;33.67;30.02;;;22.30;99.90;;;;;;5081725;28;20480;-84
2023/09/10 07:40:29;;;;;;;35.22;29.55;;;22.30;99.90;;;;;;5074456;28;20028;-83
2023/09/10 07:42:58;;;;;;;31.63;28.25;;;22.40;99.90;;;;;;5076120;28;20707;-83
2023/09/10 07:45:25;;;;;;;31.45;27.25;;;22.50;99.90;;;;;;5083357;28;20028;-84
2023/09/10 07:47:50;;;;;;;31.45;26.25;;;22.60;99.90;;;;;;5070697;28;20121;-84
2023/09/10 07:50:16;;;;;;;29.30;26.20;;;22.60;99.90;;;;;;5080145;28;20465;-84
2023/09/10 07:52:42;;;;;;;28.55;25.40;;;22.70;99.90;;;;;;5073179;28;20028;-82
2023/09/10 07:55:08;;;;;;;29.33;25.88;;;22.70;99.90;;;;;;5076290;28;20028;-79
2023/09/10 07:57:33;;;;;;;31.23;26.88;;;22.90;99.90;;;;;;5072043;28;20439;-80
2023/09/10 07:59:59;;;;;;;30.27;24.52;;;23.00;99.90;;;;;;5071682;28;20028;-79
2023/09/10 08:02:26;;;;;;;27.42;22.48;;;23.20;99.90;;;;;;5081477;28;20434;-77
2023/09/10 08:04:53;;;;;;;25.80;21.30;;;23.30;99.90;;;;;;5071035;28;20021;-78
2023/09/10 08:07:18;;;;;;;28.70;20.92;;;23.40;99.90;;;;;;5074208;28;20097;-78
2023/09/10 08:09:44;;;;;;;28.05;23.25;;;23.50;99.90;;;;;;5074275;28;20935;-78
2023/09/10 08:12:10;;;;;;;24.55;21.35;;;23.70;99.90;;;;;;5082313;28;20024;-81
2023/09/10 08:14:38;;;;;;;29.67;21.40;;;23.70;99.90;;;;;;5071852;28;20059;-78
2023/09/10 08:17:04;;;;;;;27.65;20.15;;;23.90;99.90;;;;;;5072923;28;20088;-81
2023/09/10 08:19:30;;;;;;;26.30;20.55;;;24.00;99.90;;;;;;5073720;28;20477;-83
2023/09/10 08:21:56;;;;;;;22.70;17.83;;;24.10;99.90;;;;;;5075343;28;20470;-83
2023/09/10 08:24:22;;;;;;;22.05;17.35;;;24.30;99.90;;;;;;5069736;28;20025;-82
2023/09/10 08:26:48;;;;;;;25.58;18.50;;;24.40;99.90;;;;;;5077447;28;20035;-83
2023/09/10 08:29:13;;;;;;;24.25;17.40;;;24.50;99.90;;;;;;5068465;28;20024;-78
2023/09/10 08:31:39;;;;;;;23.27;17.25;;;24.50;99.90;;;;;;5075710;28;20619;-76
2023/09/10 08:34:05;;;;;;;22.95;18.15;;;24.60;99.90;;;;;;5068299;28;20028;-75
2023/09/10 08:36:30;;;;;;;21.42;16.58;;;24.70;99.90;;;;;;5075748;28;20024;-75
2023/09/10 08:38:56;;;;;;;21.67;17.02;;;24.90;99.90;;;;;;5071438;28;20496;-75
2023/09/10 08:41:56;;;;;;;24.58;17.98;;;24.90;99.90;;;;;;5083859;28;20020;-77
2023/09/10 08:44:25;;;;;;;22.88;18.27;;;25.00;99.90;;;;;;5073056;28;20081;-78
2023/09/10 08:46:52;;;;;;;26.17;17.98;;;25.10;99.90;;;;;;5078802;28;20135;-76
2023/09/10 08:49:20;;;;;;;20.35;14.70;;;25.20;99.90;;;;;;5073633;28;20102;-76
2023/09/10 08:51:46;;;;;;;20.90;13.68;;;25.30;99.90;;;;;;5066935;28;20021;-75
2023/09/10 08:54:14;;;;;;;18.23;14.02;;;25.30;99.90;;;;;;5078373;28;20033;-75
2023/09/10 08:56:41;;;;;;;27.60;18.50;;;25.30;99.90;;;;;;5071126;28;20024;-76
2023/09/10 08:59:08;;;;;;;18.17;13.85;;;25.40;99.90;;;;;;5071004;28;20035;-76
2023/09/10 09:01:35;;;;;;;17.00;14.35;;;25.50;99.90;;;;;;5072083;28;20078;-74
2023/09/10 09:04:02;;;;;;;21.90;14.18;;;25.50;99.90;;;;;;5069450;28;20043;-74
2023/09/10 09:06:31;;;;;;;24.42;15.32;;;25.70;99.90;;;;;;5070211;28;20036;-76
2023/09/10 09:09:05;;;;;;;19.73;13.18;;;25.80;99.90;;;;;;5074251;28;20043;-75
2023/09/10 09:11:35;;;;;;;23.38;14.20;;;25.80;99.90;;;;;;5064153;28;20124;-74
2023/09/10 09:14:03;;;;;;;19.40;13.90;;;25.90;99.90;;;;;;5076458;28;20119;-74
2023/09/10 09:16:30;;;;;;;17.20;13.43;;;26.00;99.90;;;;;;5078241;28;20020;-75
2023/09/10 09:18:57;;;;;;;21.60;14.35;;;26.20;99.90;;;;;;5068625;28;20040;-75
2023/09/10 09:21:24;;;;;;;20.50;14.40;;;26.20;99.90;;;;;;5071513;28;20016;-75
2023/09/10 09:24:00;;;;;;;26.27;15.48;;;26.40;99.90;;;;;;5081142;28;20020;-75
2023/09/10 09:26:30;;;;;;;24.10;14.70;;;26.50;99.90;;;;;;5062434;28;20028;-75
2023/09/10 09:28:56;;;;;;;20.38;12.82;;;26.60;99.90;;;;;;5078408;28;20020;-75
2023/09/10 09:31:23;;;;;;;17.75;13.18;;;26.80;99.90;;;;;;5083713;28;20031;-75
2023/09/10 09:33:49;;;;;;;19.50;14.05;;;26.90;99.90;;;;;;5070543;28;20020;-75
2023/09/10 09:36:15;;;;;;;17.17;15.30;;;27.10;99.90;;;;;;5075672;28;20458;-75
2023/09/10 09:38:43;;;;;;;20.35;15.93;;;27.20;99.90;;;;;;5083679;28;20023;-75
2023/09/10 09:41:09;;;;;;;17.75;12.38;;;27.30;99.90;;;;;;5067792;28;20025;-75
2023/09/10 09:43:35;;;;;;;19.77;12.48;;;27.50;99.90;;;;;;5073997;28;20499;-75
2023/09/10 09:46:02;;;;;;;16.20;11.88;;;27.60;99.90;;;;;;5072025;28;20043;-74
2023/09/10 09:48:28;;;;;;;17.70;12.30;;;27.70;99.90;;;;;;5073050;28;20017;-75
2023/09/10 09:50:57;;;;;;;20.75;13.80;;;27.90;99.90;;;;;;5073003;28;20032;-74
2023/09/10 09:53:26;;;;;;;18.58;12.80;;;28.00;99.90;;;;;;5074034;28;20024;-75
2023/09/10 09:56:03;;;;;;;22.27;12.45;;;28.10;99.90;;;;;;5074148;28;20056;-75
2023/09/10 09:58:29;;;;;;;18.05;11.40;;;28.20;99.90;;;;;;5072400;28;20108;-75
2023/09/10 10:00:59;;;;;;;18.95;10.60;;;28.30;99.90;;;;;;5068193;28;20447;-75
2023/09/10 10:03:25;;;;;;;18.55;10.52;;;28.40;99.90;;;;;;5067779;28;20533;-74
2023/09/10 10:05:51;;;;;;;12.40;10.35;;;28.50;99.90;;;;;;5074673;28;20074;-74
2023/09/10 10:08:18;;;;;;;16.38;9.85;;;28.70;99.90;;;;;;5066455;28;20484;-75
2023/09/10 10:10:48;;;;;;;18.00;10.15;;;28.70;99.90;;;;;;5073892;28;20138;-74
2023/09/10 10:13:18;;;;;;;14.30;8.75;;;28.80;99.90;;;;;;5066605;28;20052;-75
2023/09/10 10:15:48;;;;;;;18.00;10.13;;;28.90;99.90;;;;;;5069875;28;20036;-76
2023/09/10 10:18:19;;;;;;;14.23;10.73;;;29.10;99.90;;;;;;5069776;28;20608;-76
2023/09/10 10:20:47;;;;;;;14.35;10.00;;;29.30;99.90;;;;;;5076239;28;20035;-77
2023/09/10 10:23:14;;;;;;;14.77;10.20;;;29.30;99.90;;;;;;5069047;28;20020;-75
2023/09/10 10:25:42;;;;;;;13.43;9.95;;;29.40;99.90;;;;;;5075429;28;20389;-76
2023/09/10 10:28:09;;;;;;;15.75;10.60;;;29.50;99.90;;;;;;5071305;28;20052;-76
2023/09/10 10:30:54;;;;;;;14.10;9.70;;;29.40;99.90;;;;;;5073340;28;20021;-76
2023/09/10 10:33:23;;;;;;;14.00;8.50;;;29.60;99.90;;;;;;5081277;28;20027;-77
2023/09/10 10:36:06;;;;;;;17.02;10.27;;;29.70;99.90;;;;;;5078556;28;20030;-78
2023/09/10 10:38:34;;;;;;;12.77;9.05;;;29.70;99.90;;;;;;5069652;28;20662;-77
2023/09/10 10:41:04;;;;;;;18.70;10.25;;;29.90;99.90;;;;;;5070684;28;20033;-78
2023/09/10 10:43:36;;;;;;;12.07;8.75;;;30.00;99.90;;;;;;5069235;28;20052;-76
2023/09/10 10:46:02;;;;;;;;;;;30.00;99.90;;;;;;5073908;28;20134;-77
2023/09/10 10:48:31;;;;;;;17.98;10.32;;;30.10;99.90;;;;;;5079912;28;20315;-77
2023/09/10 10:50:58;;;;;;;17.38;10.70;;;30.10;99.90;;;;;;5070409;28;20021;-76
2023/09/10 10:53:25;;;;;;;18.25;10.15;;;30.20;99.90;;;;;;5072854;28;20024;-76
2023/09/10 10:55:53;;;;;;;12.13;9.73;;;30.30;99.90;;;;;;5071298;28;20028;-75
2023/09/10 10:58:21;;;;;;;18.10;11.40;;;30.40;99.90;;;;;;5071662;28;20496;-75
2023/09/10 11:00:52;;;;;;;12.93;8.55;;;30.50;99.90;;;;;;5080355;28;20032;-76
2023/09/10 11:03:20;;;;;;;12.93;9.00;;;30.60;99.90;;;;;;5072011;28;20062;-77
2023/09/10 11:05:57;;;;;;;11.23;9.02;;;30.50;99.90;;;;;;5078043;28;20044;-77
2023/09/10 11:08:42;;;;;;;16.50;8.07;;;30.60;99.90;;;;;;5070080;28;20036;-77
2023/09/10 11:11:09;;;;;;;11.23;8.25;;;30.60;99.90;;;;;;5073369;28;20024;-77
2023/09/10 11:14:05;;;;;;;14.52;8.85;;;30.60;99.90;;;;;;5071052;28;20101;-76
2023/09/10 11:16:35;;;;;;;13.57;8.02;;;30.70;99.90;;;;;;5080052;28;20523;-75
2023/09/10 11:19:03;;;;;;;14.38;8.15;;;30.80;99.90;;;;;;5070056;28;20074;-77
2023/09/10 11:21:53;;;;;;;12.63;8.30;;;30.80;99.90;;;;;;5071144;28;21330;-77
2023/09/10 11:24:19;;;;;;;12.68;8.52;;;30.90;99.90;;;;;;5074146;28;20029;-78
2023/09/10 11:26:45;;;;;;;16.48;8.95;;;30.90;99.90;;;;;;5083813;28;20040;-77
2023/09/10 11:29:16;;;;;;;13.07;8.73;;;30.90;99.90;;;;;;5069261;28;20374;-77
2023/09/10 11:31:42;;;;;;;12.90;9.45;;;31.00;99.90;;;;;;5072935;28;20025;-78
2023/09/10 11:34:23;;;;;;;17.42;8.85;;;31.00;99.90;;;;;;5083408;28;20028;-77
2023/09/10 11:37:00;;;;;;;13.45;8.13;;;31.00;99.90;;;;;;5067281;28;20129;-76
2023/09/10 11:39:26;;;;;;;13.18;7.93;;;31.20;99.90;;;;;;5069307;28;20056;-75
2023/09/10 11:41:56;;;;;;;12.48;7.93;;;31.20;99.90;;;;;;5077000;28;20389;-76
2023/09/10 11:44:22;;;;;;;14.77;8.02;;;31.10;99.90;;;;;;5073782;28;20024;-76
2023/09/10 11:46:49;;;;;;;10.80;8.10;;;31.20;99.90;;;;;;5075637;28;20024;-78
2023/09/10 11:49:15;;;;;;;17.13;8.23;;;31.30;99.90;;;;;;5074346;28;20087;-75
2023/09/10 11:51:46;;;;;;;13.43;9.05;;;31.20;99.90;;;;;;5081726;28;20020;-77
2023/09/10 11:54:20;;;;;;;16.27;8.02;;;31.30;99.90;;;;;;5065546;28;20035;-76
2023/09/10 11:56:55;;;;;;;18.98;8.98;;;31.20;99.90;;;;;;5070921;28;20028;-75
2023/09/10 11:59:26;;;;;;;12.18;7.68;;;31.40;99.90;;;;;;5081057;28;20031;-74
2023/09/10 12:01:56;;;;;;;9.38;8.27;;;31.40;99.90;;;;;;5070704;28;20048;-75
2023/09/10 12:04:29;;;;;;;15.30;8.55;;;31.60;99.90;;;;;;5076389;28;20551;-78
2023/09/10 12:06:55;;;;;;;14.88;8.73;;;31.60;99.90;;;;;;5068046;28;20028;-79
2023/09/10 12:09:20;;;;;;;16.38;8.50;;;31.60;99.90;;;;;;5082424;28;20506;-76
2023/09/10 12:11:48;;;;;;;13.00;9.15;;;31.70;99.90;;;;;;5081830;28;20029;-77
2023/09/10 12:14:14;;;;;;;12.38;8.88;;;31.70;99.90;;;;;;5074268;28;20108;-76
2023/09/10 12:16:40;;;;;;;10.40;6.93;;;31.70;99.90;;;;;;5078718;28;20051;-77
2023/09/10 12:19:07;;;;;;;11.63;8.32;;;31.60;99.90;;;;;;5076388;28;20029;-77
2023/09/10 12:21:32;;;;;;;16.67;8.27;;;31.40;99.90;;;;;;5077424;28;20023;-78
2023/09/10 12:23:58;;;;;;;10.07;7.28;;;31.40;99.90;;;;;;5080577;28;20021;-78
2023/09/10 12:26:24;;;;;;;14.98;8.45;;;31.40;99.90;;;;;;5074144;28;20464;-78
2023/09/10 12:28:50;;;;;;;12.48;8.40;;;31.40;99.90;;;;;;5075642;28;20025;-79
2023/09/10 12:31:16;;;;;;;12.25;7.90;;;31.30;99.90;;;;;;5071516;28;20017;-81